Time;durP1;ratioP1;P1;durP2;ratioP2;P2;SDS_P1;SDS_P2;PMS_P1;PMS_P2;Temp;Humidity;BMP_temperature;BMP_pressure;BME280_temperature;BME280_humidity;BME280_pressure;Samples;Min_cycle;Max_cycle;Signal;HPM_P1;HPM_P2
2021/08/28 00:02:25;;;;;;;8.65;2.78;;;14.90;99.90;;;;;;5031455;28;20416;-39
2021/08/28 00:05:13;;;;;;;6.60;3.22;;;14.90;99.90;;;;;;5030801;28;20021;-39
2021/08/28 00:08:13;;;;;;;6.00;2.63;;;15.00;99.90;;;;;;5029687;28;20386;-39
2021/08/28 00:11:07;;;;;;;6.32;2.30;;;15.10;99.90;;;;;;5032444;28;20104;-39
2021/08/28 00:14:06;;;;;;;6.95;3.03;;;15.10;99.90;;;;;;5034543;28;20361;-42
2021/08/28 00:20:09;;;;;;;5.72;2.85;;;15.10;99.90;;;;;;5018585;28;20068;-42
2021/08/28 00:26:37;;;;;;;6.00;2.80;;;15.20;99.90;;;;;;5012698;28;20057;-39
2021/08/28 00:29:04;;;;;;;5.75;2.55;;;15.20;99.90;;;;;;5027038;28;20067;-43
2021/08/28 00:35:39;;;;;;;6.10;2.65;;;15.40;99.90;;;;;;5031287;28;20055;-41
2021/08/28 00:38:30;;;;;;;6.18;2.90;;;15.40;99.90;;;;;;5034335;28;20032;-37
2021/08/28 00:44:33;;;;;;;7.40;2.80;;;15.40;99.90;;;;;;5030720;28;20053;-39
2021/08/28 00:47:36;;;;;;;8.52;3.63;;;15.40;99.90;;;;;;5043721;28;20451;-43
2021/08/28 00:50:02;;;;;;;7.45;3.08;;;15.40;99.90;;;;;;5032511;28;20020;-39
2021/08/28 00:53:02;;;;;;;8.32;2.97;;;15.40;99.90;;;;;;5033315;28;20393;-41
2021/08/28 00:55:37;;;;;;;9.35;3.38;;;15.40;99.90;;;;;;5019769;28;20033;-39
2021/08/28 00:58:36;;;;;;;8.35;3.60;;;15.40;99.90;;;;;;5032250;28;20021;-41
2021/08/28 01:05:10;;;;;;;11.43;3.58;;;15.40;99.90;;;;;;5029620;28;20071;-41
2021/08/28 01:11:45;;;;;;;10.50;3.38;;;15.40;99.90;;;;;;5036173;28;20096;-37
2021/08/28 01:17:59;;;;;;;6.80;2.97;;;15.40;99.90;;;;;;5027581;28;20052;-42
2021/08/28 01:20:46;;;;;;;9.88;3.63;;;15.40;99.90;;;;;;5030620;28;20021;-38
2021/08/28 01:23:13;;;;;;;6.60;2.85;;;15.40;99.90;;;;;;5030517;28;20022;-42
2021/08/28 01:25:42;;;;;;;8.75;3.20;;;15.50;99.90;;;;;;5030370;28;20440;-42
2021/08/28 01:28:13;;;;;;;5.40;3.00;;;15.40;99.90;;;;;;5029643;28;20029;-42
2021/08/28 01:30:43;;;;;;;5.80;3.15;;;15.50;99.90;;;;;;5029525;28;20666;-41
2021/08/28 01:33:14;;;;;;;5.93;3.05;;;15.50;99.90;;;;;;5030330;28;20072;-41
2021/08/28 01:35:43;;;;;;;7.13;3.47;;;15.50;99.90;;;;;;5030325;28;20021;-42
2021/08/28 01:38:11;;;;;;;8.93;3.05;;;15.50;99.90;;;;;;5029858;28;20539;-41
2021/08/28 01:40:40;;;;;;;7.57;3.30;;;15.50;99.90;;;;;;5029880;28;20021;-42
2021/08/28 01:43:06;;;;;;;6.65;2.85;;;15.60;99.90;;;;;;5029317;28;20029;-41
2021/08/28 01:45:33;;;;;;;5.18;3.03;;;15.60;99.90;;;;;;5029680;28;20014;-40
2021/08/28 01:48:00;;;;;;;5.53;2.72;;;15.60;99.90;;;;;;5029290;28;20441;-42
2021/08/28 01:50:28;;;;;;;7.18;2.78;;;15.70;99.90;;;;;;5030119;28;20453;-39
2021/08/28 01:52:54;;;;;;;9.30;3.42;;;15.70;99.90;;;;;;5029523;28;20053;-42
2021/08/28 01:55:20;;;;;;;8.10;3.33;;;15.70;99.90;;;;;;5030559;28;20021;-41
2021/08/28 01:57:47;;;;;;;8.75;3.78;;;15.70;99.90;;;;;;5030470;28;20242;-40
2021/08/28 02:00:15;;;;;;;9.30;3.20;;;15.70;99.90;;;;;;5029428;28;20024;-35
2021/08/28 02:02:43;;;;;;;10.98;4.47;;;15.60;99.90;;;;;;5030132;28;20029;-42
2021/08/28 02:05:15;;;;;;;7.68;3.88;;;15.60;99.90;;;;;;5030835;28;20333;-40
2021/08/28 02:07:58;;;;;;;8.02;3.85;;;15.60;99.90;;;;;;5018585;28;20096;-41
2021/08/28 02:10:38;;;;;;;10.60;4.03;;;15.60;99.90;;;;;;5030406;28;20029;-39
2021/08/28 02:13:13;;;;;;;8.43;3.60;;;15.50;99.90;;;;;;5029769;28;20025;-42
2021/08/28 02:15:46;;;;;;;8.68;3.67;;;15.50;99.90;;;;;;5028745;28;20075;-42
2021/08/28 02:18:30;;;;;;;6.88;3.63;;;15.50;99.90;;;;;;5030429;28;20036;-42
2021/08/28 02:21:00;;;;;;;7.22;3.60;;;15.50;99.90;;;;;;5030051;28;20072;-39
2021/08/28 02:23:33;;;;;;;7.20;3.35;;;15.50;99.90;;;;;;5030022;28;20022;-40
2021/08/28 02:26:11;;;;;;;7.88;3.17;;;15.50;99.90;;;;;;5029063;28;20021;-39
2021/08/28 02:28:55;;;;;;;8.02;3.30;;;15.60;99.90;;;;;;5029825;28;20032;-41
2021/08/28 02:31:25;;;;;;;7.13;3.58;;;15.60;99.90;;;;;;5030403;28;20068;-42
2021/08/28 02:34:05;;;;;;;9.60;3.60;;;15.60;99.90;;;;;;5030711;28;20022;-43
2021/08/28 02:36:45;;;;;;;8.02;3.67;;;15.60;99.90;;;;;;5031604;28;20408;-43
2021/08/28 02:43:22;;;;;;;7.60;3.70;;;15.70;99.90;;;;;;5036314;28;20044;-42
2021/08/28 02:46:36;;;;;;;8.80;3.70;;;15.60;99.90;;;;;;5014108;28;20062;-40
2021/08/28 02:49:32;;;;;;;8.75;3.70;;;15.60;99.90;;;;;;5038683;28;20041;-41
2021/08/28 02:52:29;;;;;;;10.10;4.00;;;15.60;99.90;;;;;;5031688;28;20514;-41
2021/08/28 02:55:47;;;;;;;12.80;4.47;;;15.60;99.90;;;;;;5027577;28;20707;-42
2021/08/28 02:58:34;;;;;;;8.07;3.67;;;15.70;99.90;;;;;;5030102;28;20444;-42
2021/08/28 03:01:16;;;;;;;9.45;3.78;;;15.70;99.90;;;;;;5032124;28;20489;-36
2021/08/28 03:03:57;;;;;;;7.78;4.07;;;15.70;99.90;;;;;;5031153;28;20370;-40
2021/08/28 03:06:41;;;;;;;8.88;3.53;;;15.80;99.90;;;;;;5032247;28;20427;-39
2021/08/28 03:09:39;;;;;;;9.80;3.65;;;15.80;99.90;;;;;;5030068;28;20448;-40
2021/08/28 03:13:08;;;;;;;9.73;3.72;;;15.80;99.90;;;;;;5029541;28;20047;-43
2021/08/28 03:15:45;;;;;;;9.55;4.03;;;15.90;99.90;;;;;;5028846;28;20092;-42
2021/08/28 03:18:27;;;;;;;10.85;5.28;;;15.90;99.90;;;;;;5032957;28;20112;-40
2021/08/28 03:20:59;;;;;;;8.38;3.83;;;15.80;99.90;;;;;;5033764;28;20037;-42
2021/08/28 03:23:38;;;;;;;7.63;3.50;;;15.80;99.90;;;;;;5035058;28;20108;-42
2021/08/28 03:26:14;;;;;;;5.68;3.22;;;15.80;99.90;;;;;;5033669;28;20520;-36
2021/08/28 03:28:45;;;;;;;7.40;3.45;;;15.70;99.90;;;;;;5033742;28;20463;-42
2021/08/28 03:31:16;;;;;;;7.60;3.60;;;15.70;99.90;;;;;;5034896;28;20099;-41
2021/08/28 03:33:59;;;;;;;5.78;3.40;;;15.60;99.90;;;;;;5033481;28;20044;-38
2021/08/28 03:36:40;;;;;;;5.05;2.92;;;15.60;99.90;;;;;;5033847;28;20036;-40
2021/08/28 03:39:11;;;;;;;6.80;3.10;;;15.60;99.90;;;;;;5033496;28;20026;-39
2021/08/28 03:41:45;;;;;;;5.80;3.20;;;15.60;99.90;;;;;;5033768;28;20061;-42
2021/08/28 03:44:30;;;;;;;8.07;3.38;;;15.60;99.90;;;;;;5034045;28;20376;-43
2021/08/28 03:47:06;;;;;;;6.97;3.05;;;15.70;99.90;;;;;;5033311;28;20035;-41
2021/08/28 03:49:36;;;;;;;5.68;3.47;;;15.70;99.90;;;;;;5034269;28;20531;-39
2021/08/28 03:52:36;;;;;;;6.22;3.20;;;15.70;99.90;;;;;;5035246;28;20053;-38
2021/08/28 03:55:15;;;;;;;5.45;3.10;;;15.70;99.90;;;;;;5035357;28;20059;-41
2021/08/28 03:57:57;;;;;;;4.88;2.78;;;15.70;99.90;;;;;;5033383;28;20030;-42
2021/08/28 04:00:30;;;;;;;4.47;2.97;;;15.80;99.90;;;;;;5035266;28;20616;-40
2021/08/28 04:03:02;;;;;;;6.32;3.17;;;15.80;99.90;;;;;;5017098;28;20467;-39
2021/08/28 04:05:35;;;;;;;6.07;3.00;;;15.80;99.90;;;;;;5031360;28;20464;-39
2021/08/28 04:08:20;;;;;;;5.68;2.83;;;15.90;99.90;;;;;;5038694;28;20369;-42
2021/08/28 04:11:09;;;;;;;6.43;3.00;;;15.90;99.90;;;;;;5038456;28;20380;-40
2021/08/28 04:13:40;;;;;;;6.32;3.53;;;15.90;99.90;;;;;;5033863;28;20334;-39
2021/08/28 04:16:23;;;;;;;6.80;3.53;;;15.90;99.90;;;;;;5035316;28;20427;-41
2021/08/28 04:18:54;;;;;;;4.65;2.88;;;15.90;99.90;;;;;;5035208;28;20485;-40
2021/08/28 04:21:39;;;;;;;5.15;2.90;;;16.00;99.90;;;;;;5033521;28;20033;-42
2021/08/28 04:24:11;;;;;;;6.22;3.70;;;15.90;99.90;;;;;;5037365;28;20107;-39
2021/08/28 04:26:45;;;;;;;8.70;4.00;;;16.00;99.90;;;;;;5036661;28;20359;-42
2021/08/28 04:32:27;;;;;;;7.70;4.13;;;15.90;99.90;;;;;;5039829;28;20060;-37
2021/08/28 04:35:15;;;;;;;4.93;3.78;;;15.90;99.90;;;;;;5036989;28;20348;-42
2021/08/28 04:37:48;;;;;;;6.50;3.80;;;15.90;99.90;;;;;;5032012;28;20033;-41
2021/08/28 04:40:20;;;;;;;6.60;3.75;;;15.90;99.90;;;;;;5038744;28;20021;-38
2021/08/28 04:43:08;;;;;;;6.43;3.40;;;15.90;99.90;;;;;;5038785;28;20411;-39
2021/08/28 04:45:44;;;;;;;6.18;3.83;;;15.90;99.90;;;;;;5037901;28;20031;-42
2021/08/28 04:48:31;;;;;;;7.78;4.03;;;15.90;99.90;;;;;;5035031;28;20412;-40
2021/08/28 04:51:00;;;;;;;7.32;3.70;;;15.80;99.90;;;;;;5033511;28;20388;-40
2021/08/28 04:53:36;;;;;;;8.52;4.03;;;15.80;99.90;;;;;;5034022;28;20026;-40
2021/08/28 04:56:08;;;;;;;6.80;3.78;;;15.80;99.90;;;;;;5032722;28;20387;-42
2021/08/28 04:58:36;;;;;;;7.10;4.13;;;15.70;99.90;;;;;;5034681;28;20111;-41
2021/08/28 05:01:04;;;;;;;5.72;3.58;;;15.70;99.90;;;;;;5034046;28;20025;-37
2021/08/28 05:03:32;;;;;;;5.90;3.58;;;15.70;99.90;;;;;;5032391;28;20040;-37
2021/08/28 05:06:03;;;;;;;9.93;5.00;;;15.70;99.90;;;;;;5033226;28;20438;-40
2021/08/28 05:08:34;;;;;;;4.90;4.07;;;15.70;99.90;;;;;;5033351;28;20411;-39
2021/08/28 05:11:10;;;;;;;6.63;3.70;;;15.70;99.90;;;;;;5033343;28;20442;-42
2021/08/28 05:13:49;;;;;;;6.50;3.63;;;15.70;99.90;;;;;;5065669;28;20373;-41
2021/08/28 05:16:26;;;;;;;7.10;4.07;;;15.80;99.90;;;;;;5034158;28;20080;-42
2021/08/28 05:19:11;;;;;;;6.60;3.83;;;15.80;99.90;;;;;;5033031;28;20439;-39
2021/08/28 05:21:47;;;;;;;6.68;3.92;;;15.80;99.90;;;;;;5034614;28;20420;-39
2021/08/28 05:24:20;;;;;;;8.85;4.35;;;15.90;99.90;;;;;;5032301;28;20029;-37
2021/08/28 05:26:53;;;;;;;8.55;3.97;;;16.00;99.90;;;;;;5032434;28;20095;-41
2021/08/28 05:29:32;;;;;;;7.20;4.53;;;16.00;99.90;;;;;;5032746;28;20483;-40
2021/08/28 05:32:03;;;;;;;9.18;4.07;;;16.00;99.90;;;;;;5031133;28;20026;-37
2021/08/28 05:34:36;;;;;;;6.78;3.80;;;16.00;99.90;;;;;;5033344;28;20037;-41
2021/08/28 05:37:11;;;;;;;6.18;3.55;;;15.90;99.90;;;;;;5032922;28;20376;-37
2021/08/28 05:39:49;;;;;;;7.22;3.72;;;15.90;99.90;;;;;;5030274;28;20053;-39
2021/08/28 05:42:29;;;;;;;8.55;3.95;;;15.90;99.90;;;;;;5032273;28;20345;-41
2021/08/28 05:45:15;;;;;;;6.13;3.50;;;15.90;99.90;;;;;;5033777;28;20468;-41
2021/08/28 05:48:00;;;;;;;5.78;3.45;;;16.00;99.90;;;;;;5033321;28;20295;-43
2021/08/28 05:50:37;;;;;;;5.80;3.50;;;16.00;99.90;;;;;;5025569;28;20435;-39
2021/08/28 05:53:19;;;;;;;6.43;3.50;;;16.00;99.90;;;;;;5033863;28;20029;-39
2021/08/28 05:55:53;;;;;;;7.47;3.58;;;16.10;99.90;;;;;;5034645;28;20022;-38
2021/08/28 05:58:42;;;;;;;5.88;3.80;;;16.10;99.90;;;;;;5034243;28;20469;-38
2021/08/28 06:01:13;;;;;;;4.40;3.03;;;16.20;99.90;;;;;;5033839;28;20083;-38
2021/08/28 06:03:48;;;;;;;5.75;3.70;;;16.30;99.90;;;;;;5032114;28;20017;-36
2021/08/28 06:06:18;;;;;;;4.82;3.55;;;16.30;99.90;;;;;;5032054;28;20337;-40
2021/08/28 06:08:49;;;;;;;7.22;4.50;;;16.40;99.90;;;;;;5032172;28;20025;-36
2021/08/28 06:11:18;;;;;;;5.45;3.70;;;16.50;99.90;;;;;;5032680;28;20132;-39
2021/08/28 06:13:57;;;;;;;7.75;3.53;;;16.60;99.90;;;;;;5032217;28;20037;-38
2021/08/28 06:16:31;;;;;;;7.68;4.43;;;16.60;99.90;;;;;;5032243;28;20072;-35
2021/08/28 06:19:03;;;;;;;6.38;4.40;;;16.70;99.90;;;;;;5033888;28;20476;-41
2021/08/28 06:21:38;;;;;;;7.40;4.18;;;16.70;99.90;;;;;;5032748;28;20226;-40
2021/08/28 06:24:12;;;;;;;4.88;3.55;;;16.80;99.90;;;;;;5031890;28;20026;-37
2021/08/28 06:26:48;;;;;;;;;;;16.80;99.90;;;;;;5032955;28;20431;-43
2021/08/28 06:29:27;;;;;;;8.93;4.50;;;16.90;99.90;;;;;;5029105;28;19912;-42
2021/08/28 06:32:19;;;;;;;6.75;3.03;;;16.90;99.90;;;;;;5029580;28;20384;-40
2021/08/28 06:35:13;;;;;;;10.02;4.28;;;16.90;99.90;;;;;;5028571;28;20014;-39
2021/08/28 06:38:02;;;;;;;5.95;3.58;;;16.90;99.90;;;;;;5030828;28;20367;-39
2021/08/28 06:40:53;;;;;;;5.55;4.03;;;16.90;99.90;;;;;;5032721;28;20724;-38
2021/08/28 06:43:19;;;;;;;6.72;3.78;;;16.90;99.90;;;;;;5010374;28;20291;-37
2021/08/28 06:45:49;;;;;;;7.15;3.90;;;16.90;99.90;;;;;;5024790;28;20183;-41
2021/08/28 06:48:32;;;;;;;7.65;3.95;;;16.90;99.90;;;;;;5032004;28;20182;-41
2021/08/28 06:51:01;;;;;;;6.60;4.45;;;16.90;99.90;;;;;;5033588;28;20045;-41
2021/08/28 06:53:54;;;;;;;8.13;3.67;;;17.00;99.90;;;;;;5037425;28;20037;-40
2021/08/28 06:56:49;;;;;;;8.57;3.97;;;17.00;99.90;;;;;;5033650;28;20107;-39
2021/08/28 06:59:21;;;;;;;6.70;4.22;;;17.10;99.90;;;;;;5034012;28;20036;-40
2021/08/28 07:01:51;;;;;;;7.80;3.97;;;17.00;99.90;;;;;;5033615;28;20013;-40
2021/08/28 07:04:21;;;;;;;;;;;17.10;99.90;;;;;;5033688;28;20506;-39
2021/08/28 07:06:48;;;;;;;7.47;4.00;;;17.00;99.90;;;;;;5031450;28;19905;-42
2021/08/28 07:09:18;;;;;;;10.07;4.72;;;17.00;99.90;;;;;;5032824;28;20037;-41
2021/08/28 07:11:47;;;;;;;8.82;4.80;;;17.00;99.90;;;;;;5030200;28;20540;-40
2021/08/28 07:14:14;;;;;;;7.70;4.75;;;17.10;99.90;;;;;;5012608;28;20026;-44
2021/08/28 07:16:40;;;;;;;7.03;4.30;;;17.10;99.90;;;;;;5024831;28;20057;-42
2021/08/28 07:19:07;;;;;;;8.65;4.35;;;17.20;99.90;;;;;;5031535;28;20112;-38
2021/08/28 07:21:36;;;;;;;6.50;4.35;;;17.20;99.90;;;;;;5031640;28;20029;-42
2021/08/28 07:24:06;;;;;;;5.38;3.85;;;17.20;99.90;;;;;;5031010;28;20029;-40
2021/08/28 07:26:35;;;;;;;7.82;4.57;;;17.30;99.90;;;;;;5031706;28;20328;-40
2021/08/28 07:29:02;;;;;;;8.27;4.32;;;17.30;99.90;;;;;;5031284;28;20108;-38
2021/08/28 07:31:32;;;;;;;8.73;5.15;;;17.40;99.90;;;;;;5062215;28;20484;-39
2021/08/28 07:34:05;;;;;;;9.25;4.72;;;17.40;99.90;;;;;;5032060;28;20029;-39
2021/08/28 07:36:30;;;;;;;7.20;4.38;;;17.50;99.90;;;;;;5030306;28;20024;-38
2021/08/28 07:38:58;;;;;;;9.57;5.05;;;17.60;99.90;;;;;;5029381;28;20180;-39
2021/08/28 07:41:45;;;;;;;10.27;4.72;;;17.70;99.90;;;;;;5030182;28;20044;-40
2021/08/28 07:44:10;;;;;;;8.27;4.28;;;17.70;99.90;;;;;;5019883;28;20420;-40
2021/08/28 07:46:39;;;;;;;8.35;4.70;;;17.70;99.90;;;;;;5028560;28;20030;-38
2021/08/28 07:49:04;;;;;;;13.38;5.35;;;17.70;99.90;;;;;;5017026;28;20026;-39
2021/08/28 07:51:30;;;;;;;10.07;4.70;;;17.70;99.90;;;;;;5029332;28;20024;-41
2021/08/28 07:54:16;;;;;;;8.88;5.00;;;17.80;99.90;;;;;;5028991;28;20052;-43
2021/08/28 07:56:41;;;;;;;8.18;4.38;;;17.90;99.90;;;;;;5028417;28;20034;-42
2021/08/28 07:59:07;;;;;;;7.35;4.63;;;17.90;99.90;;;;;;5029609;28;20105;-40
2021/08/28 08:01:32;;;;;;;9.20;4.72;;;17.90;99.90;;;;;;5031770;28;20044;-42
2021/08/28 08:03:58;;;;;;;11.38;4.68;;;18.00;99.90;;;;;;5030482;28;20025;-40
2021/08/28 08:06:24;;;;;;;8.27;4.32;;;18.00;99.90;;;;;;5029723;28;20519;-41
2021/08/28 08:08:49;;;;;;;9.10;4.75;;;18.10;99.90;;;;;;5030137;28;20381;-37
2021/08/28 08:11:16;;;;;;;8.60;4.28;;;18.10;99.90;;;;;;5029857;28;20022;-39
2021/08/28 08:13:44;;;;;;;8.40;4.30;;;18.30;99.90;;;;;;5032450;28;20036;-39
2021/08/28 08:16:10;;;;;;;7.00;4.57;;;18.40;99.90;;;;;;5030346;28;20160;-39
2021/08/28 08:18:36;;;;;;;6.82;4.32;;;18.50;99.90;;;;;;5029487;28;20030;-41
2021/08/28 08:21:02;;;;;;;8.05;4.40;;;18.70;99.90;;;;;;5028562;28;20025;-41
2021/08/28 08:23:31;;;;;;;9.77;4.93;;;18.80;99.90;;;;;;5029406;28;20029;-38
2021/08/28 08:25:56;;;;;;;9.32;4.70;;;18.90;99.90;;;;;;5027589;28;20806;-41
2021/08/28 08:28:22;;;;;;;9.05;4.50;;;18.90;99.90;;;;;;5026321;28;20064;-42
2021/08/28 08:30:47;;;;;;;6.20;4.25;;;18.90;99.90;;;;;;5027134;28;20017;-40
2021/08/28 08:33:13;;;;;;;8.65;4.25;;;19.00;99.90;;;;;;5028497;28;20029;-43
2021/08/28 08:35:39;;;;;;;5.20;4.05;;;19.10;99.90;;;;;;5029264;28;20025;-43
2021/08/28 08:38:07;;;;;;;8.07;5.10;;;19.10;99.90;;;;;;5029914;28;20088;-42
2021/08/28 08:40:33;;;;;;;9.88;5.03;;;19.20;99.90;;;;;;5030315;28;20055;-39
2021/08/28 08:43:07;;;;;;;7.55;4.97;;;19.30;99.90;;;;;;5029422;28;20017;-40
2021/08/28 08:45:33;;;;;;;8.52;5.03;;;19.30;99.90;;;;;;5030607;28;20026;-41
2021/08/28 08:48:03;;;;;;;8.23;5.13;;;19.30;99.90;;;;;;5027535;28;20384;-40
2021/08/28 08:50:34;;;;;;;7.78;4.47;;;19.30;99.90;;;;;;5027695;28;20032;-39
2021/08/28 08:53:05;;;;;;;6.82;4.53;;;19.30;99.90;;;;;;5026596;28;20287;-39
2021/08/28 08:55:32;;;;;;;6.68;4.20;;;19.30;99.90;;;;;;5030332;28;20119;-41
2021/08/28 08:57:59;;;;;;;8.85;5.45;;;19.20;99.90;;;;;;5028912;28;20022;-40
2021/08/28 09:00:29;;;;;;;6.45;4.43;;;19.20;99.90;;;;;;5028127;28;20538;-43
2021/08/28 09:02:54;;;;;;;6.68;4.95;;;19.10;99.90;;;;;;5026487;28;20029;-45
2021/08/28 09:05:20;;;;;;;8.05;4.55;;;19.10;99.90;;;;;;5025642;28;20350;-41
2021/08/28 09:07:45;;;;;;;6.85;4.93;;;19.10;99.90;;;;;;5027274;28;20053;-44
2021/08/28 09:10:48;;;;;;;7.28;4.47;;;19.10;99.90;;;;;;5028813;28;20063;-42
2021/08/28 09:14:16;;;;;;;10.57;4.78;;;19.20;99.90;;;;;;5026555;28;20137;-41
2021/08/28 09:16:42;;;;;;;8.13;4.50;;;19.30;99.90;;;;;;5027518;28;20053;-44
2021/08/28 09:19:10;;;;;;;6.50;4.20;;;19.50;99.90;;;;;;5029030;28;20022;-41
2021/08/28 09:21:36;;;;;;;6.68;4.28;;;19.60;99.90;;;;;;5029289;28;20041;-42
2021/08/28 09:24:05;;;;;;;7.03;4.63;;;19.70;99.90;;;;;;5029191;28;20025;-44
2021/08/28 09:26:33;;;;;;;7.97;4.35;;;19.80;99.90;;;;;;5031094;28;20026;-42
2021/08/28 09:28:59;;;;;;;7.45;4.75;;;19.80;99.90;;;;;;5029736;28;20025;-41
2021/08/28 09:31:50;;;;;;;5.68;4.35;;;19.80;99.90;;;;;;5026857;28;20064;-44
2021/08/28 09:34:25;;;;;;;5.32;4.20;;;19.80;99.90;;;;;;5029366;28;20037;-39
2021/08/28 09:37:00;;;;;;;8.05;4.28;;;19.90;99.90;;;;;;5028508;28;20499;-42
2021/08/28 09:39:46;;;;;;;6.88;4.75;;;19.80;99.90;;;;;;5029522;28;20025;-43
2021/08/28 09:42:21;;;;;;;10.88;4.50;;;19.70;99.90;;;;;;5029646;28;20191;-45
2021/08/28 09:44:48;;;;;;;5.97;4.40;;;19.50;99.90;;;;;;5030093;28;20049;-41
2021/08/28 09:47:17;;;;;;;5.95;4.28;;;19.40;99.90;;;;;;5030267;28;20420;-44
2021/08/28 09:49:47;;;;;;;6.55;4.00;;;19.40;99.90;;;;;;5011739;28;20037;-42
2021/08/28 09:52:17;;;;;;;9.05;4.40;;;19.40;99.90;;;;;;5027475;28;20030;-39
2021/08/28 09:54:43;;;;;;;9.48;4.63;;;19.40;99.90;;;;;;5030618;28;20017;-41
2021/08/28 09:57:09;;;;;;;7.82;4.70;;;19.50;99.90;;;;;;5029511;28;20052;-38
2021/08/28 09:59:35;;;;;;;5.57;4.00;;;19.50;99.90;;;;;;5030993;28;20493;-43
2021/08/28 10:02:23;;;;;;;6.10;3.92;;;19.50;99.90;;;;;;5025500;28;20733;-40
2021/08/28 10:05:23;;;;;;;5.53;3.50;;;19.60;99.90;;;;;;5023430;28;20030;-42
2021/08/28 10:07:55;;;;;;;5.03;3.67;;;19.80;99.90;;;;;;5029468;28;20055;-38
2021/08/28 10:10:20;;;;;;;4.75;3.58;;;19.80;99.70;;;;;;5027693;28;20025;-43
2021/08/28 10:12:50;;;;;;;6.07;4.07;;;19.90;99.80;;;;;;5027379;28;20472;-39
2021/08/28 10:15:16;;;;;;;6.28;4.05;;;20.00;99.40;;;;;;5007618;28;20026;-42
2021/08/28 10:17:43;;;;;;;4.53;3.40;;;20.10;98.90;;;;;;5021231;28;20049;-42
2021/08/28 10:20:09;;;;;;;6.82;3.95;;;20.00;98.50;;;;;;5027108;28;20126;-42
2021/08/28 10:22:37;;;;;;;5.03;3.60;;;19.90;98.40;;;;;;5028059;28;20044;-41
2021/08/28 10:25:09;;;;;;;5.30;3.15;;;19.90;98.30;;;;;;5028764;28;20028;-42
2021/08/28 10:27:39;;;;;;;3.88;3.08;;;20.00;98.30;;;;;;5025990;28;20022;-42
2021/08/28 10:30:29;;;;;;;7.13;3.33;;;20.20;98.10;;;;;;5027356;28;20014;-40
2021/08/28 10:36:38;;;;;;;3.78;3.00;;;20.60;97.40;;;;;;5007852;28;20040;-37
2021/08/28 10:39:07;;;;;;;4.53;3.10;;;20.70;96.60;;;;;;5027934;28;20412;-40
2021/08/28 10:41:40;;;;;;;3.83;3.10;;;20.80;96.80;;;;;;5029086;28;20347;-40
2021/08/28 10:44:09;;;;;;;4.57;3.10;;;20.90;96.60;;;;;;5033842;28;20424;-41
2021/08/28 10:46:35;;;;;;;4.20;3.30;;;20.90;96.70;;;;;;5029086;28;20029;-38
2021/08/28 10:49:02;;;;;;;6.78;3.22;;;21.00;96.30;;;;;;5026350;28;20025;-38
2021/08/28 10:51:39;;;;;;;5.13;3.33;;;21.00;96.40;;;;;;5011142;28;20034;-39
2021/08/28 10:54:57;;;;;;;4.43;3.15;;;21.00;96.10;;;;;;5025424;28;20423;-40
2021/08/28 10:57:28;;;;;;;4.03;3.20;;;21.00;96.50;;;;;;5025916;28;20037;-40
2021/08/28 11:00:17;;;;;;;2.83;2.58;;;21.00;96.40;;;;;;5026997;28;20060;-41
2021/08/28 11:03:23;;;;;;;4.82;2.83;;;20.90;96.30;;;;;;5031445;28;20042;-40
2021/08/28 11:06:11;;;;;;;3.83;2.53;;;20.90;96.10;;;;;;5025290;28;20068;-41
2021/08/28 11:09:37;;;;;;;3.95;2.70;;;21.00;96.10;;;;;;5031379;28;20432;-41
2021/08/28 11:15:45;;;;;;;4.00;2.90;;;21.00;96.00;;;;;;5029130;28;20071;-41
2021/08/28 11:19:12;;;;;;;3.65;2.50;;;21.00;95.80;;;;;;5031132;28;20441;-43
2021/08/28 11:22:10;;;;;;;4.35;2.72;;;21.00;96.10;;;;;;5024064;28;20033;-43
2021/08/28 11:24:56;;;;;;;5.07;3.35;;;21.10;96.20;;;;;;5029957;28;20091;-39
2021/08/28 11:27:39;;;;;;;5.30;3.10;;;21.10;95.80;;;;;;5030223;28;20022;-42
2021/08/28 11:30:09;;;;;;;5.38;3.47;;;21.10;94.90;;;;;;5028378;28;20029;-37
2021/08/28 11:33:06;;;;;;;4.82;2.92;;;21.20;95.20;;;;;;5029471;28;20061;-40
2021/08/28 11:36:01;;;;;;;4.30;2.65;;;21.20;95.20;;;;;;5030417;28;20369;-39
2021/08/28 11:38:52;;;;;;;4.32;2.85;;;21.30;95.20;;;;;;5012268;28;20033;-38
2021/08/28 11:41:22;;;;;;;5.60;3.30;;;21.30;95.20;;;;;;5032030;28;20098;-40
2021/08/28 11:43:50;;;;;;;5.18;3.03;;;21.30;94.60;;;;;;5033409;28;20652;-41
2021/08/28 11:46:26;;;;;;;5.07;3.08;;;21.40;95.00;;;;;;5032258;28;20040;-41
2021/08/28 11:48:53;;;;;;;6.70;3.03;;;21.40;95.30;;;;;;5032040;28;20451;-39
2021/08/28 11:51:21;;;;;;;8.15;3.10;;;21.40;95.50;;;;;;5031674;28;20057;-40
2021/08/28 11:53:52;;;;;;;5.57;3.20;;;21.40;95.40;;;;;;5030964;28;20064;-38
2021/08/28 11:56:23;;;;;;;5.75;3.00;;;21.30;95.30;;;;;;5032560;28;20211;-41
2021/08/28 11:59:00;;;;;;;4.53;2.63;;;21.20;95.50;;;;;;5031099;28;20509;-40
2021/08/28 12:01:41;;;;;;;5.15;3.10;;;21.20;95.80;;;;;;5031841;28;20036;-38
2021/08/28 12:04:18;;;;;;;5.18;2.92;;;21.30;95.50;;;;;;5012537;28;20030;-40
2021/08/28 12:06:50;;;;;;;6.22;2.83;;;21.40;95.00;;;;;;5028772;28;20025;-39
2021/08/28 12:09:16;;;;;;;3.72;2.80;;;21.40;95.00;;;;;;5031932;28;20022;-37
2021/08/28 12:11:47;;;;;;;5.18;2.55;;;21.50;94.90;;;;;;5030845;28;20053;-38
2021/08/28 12:14:13;;;;;;;4.43;2.70;;;21.50;95.00;;;;;;5031463;28;20021;-39
2021/08/28 12:16:40;;;;;;;3.22;2.40;;;21.50;95.30;;;;;;5029965;28;20060;-38
2021/08/28 12:19:19;;;;;;;2.80;2.50;;;21.60;95.40;;;;;;5031812;28;20552;-39
2021/08/28 12:22:01;;;;;;;5.13;2.90;;;21.60;95.20;;;;;;5031713;28;20026;-40
2021/08/28 12:24:32;;;;;;;;;;;21.70;94.90;;;;;;5032617;28;20384;-39
2021/08/28 12:27:05;;;;;;;6.55;3.22;;;21.60;94.70;;;;;;5030973;28;19909;-40
2021/08/28 12:29:34;;;;;;;4.57;2.70;;;21.50;94.40;;;;;;5031622;28;20029;-41
2021/08/28 12:32:09;;;;;;;4.10;2.45;;;21.30;94.90;;;;;;5031372;28;20112;-39
2021/08/28 12:34:38;;;;;;;2.60;2.22;;;21.10;95.20;;;;;;5031344;28;20045;-38
2021/08/28 12:37:09;;;;;;;5.03;2.63;;;21.10;95.50;;;;;;5031435;28;20017;-39
2021/08/28 12:39:38;;;;;;;3.55;2.13;;;21.00;95.80;;;;;;5032491;28;20549;-41
2021/08/28 12:42:23;;;;;;;3.72;2.60;;;21.00;95.90;;;;;;5030729;28;20033;-41
2021/08/28 12:45:13;;;;;;;3.63;2.30;;;21.10;95.90;;;;;;5031016;28;20021;-37
2021/08/28 12:47:45;;;;;;;4.10;2.53;;;21.20;95.90;;;;;;5031088;28;20056;-42
2021/08/28 12:50:14;;;;;;;7.18;2.97;;;21.30;95.70;;;;;;5031345;28;20350;-40
2021/08/28 12:52:43;;;;;;;4.65;2.42;;;21.30;95.70;;;;;;5031441;28;20564;-39
2021/08/28 12:55:30;;;;;;;8.73;3.03;;;21.30;95.80;;;;;;5030383;28;20029;-41
2021/08/28 12:58:12;;;;;;;4.22;2.53;;;21.30;95.70;;;;;;5031902;28;20067;-35
2021/08/28 13:00:42;;;;;;;7.18;3.63;;;21.30;95.40;;;;;;5032181;28;20033;-40
2021/08/28 13:03:44;;;;;;;4.13;2.08;;;21.30;95.30;;;;;;5029350;28;20473;-40
2021/08/28 13:06:22;;;;;;;2.90;2.40;;;21.20;95.60;;;;;;5012201;28;20045;-38
2021/08/28 13:08:48;;;;;;;4.15;2.25;;;21.20;95.70;;;;;;5027914;28;20442;-40
2021/08/28 13:11:19;;;;;;;5.00;2.67;;;21.20;95.80;;;;;;5030423;28;20029;-40
2021/08/28 13:14:00;;;;;;;3.42;2.28;;;21.20;95.60;;;;;;5029716;28;20017;-39
2021/08/28 13:16:26;;;;;;;4.38;2.40;;;21.20;95.60;;;;;;5026927;28;20046;-39
2021/08/28 13:19:14;;;;;;;5.55;2.35;;;21.30;95.30;;;;;;5028571;28;20035;-40
2021/08/28 13:21:42;;;;;;;5.45;2.58;;;21.30;95.30;;;;;;5024173;28;20064;-38
2021/08/28 13:24:16;;;;;;;3.75;2.05;;;21.30;95.30;;;;;;5027698;28;20072;-36
2021/08/28 13:27:05;;;;;;;7.45;3.28;;;21.40;95.30;;;;;;5027882;28;20057;-37
2021/08/28 13:29:33;;;;;;;5.90;2.70;;;21.30;95.20;;;;;;5027349;28;20071;-40
2021/08/28 13:32:12;;;;;;;5.07;2.17;;;21.30;95.40;;;;;;5027427;28;20036;-40
2021/08/28 13:34:40;;;;;;;6.22;2.63;;;21.30;95.20;;;;;;5025363;28;20029;-35
2021/08/28 13:37:07;;;;;;;2.90;2.05;;;21.30;94.80;;;;;;5028139;28;20022;-41
2021/08/28 13:39:33;;;;;;;4.63;2.20;;;21.20;95.00;;;;;;5027996;28;20025;-38
2021/08/28 13:41:59;;;;;;;4.40;2.45;;;21.20;95.10;;;;;;5027095;28;20065;-40
2021/08/28 13:44:25;;;;;;;3.03;2.05;;;21.20;94.90;;;;;;5028118;28;20049;-38
2021/08/28 13:46:51;;;;;;;3.45;2.05;;;21.20;94.50;;;;;;5027611;28;20039;-37
2021/08/28 13:49:16;;;;;;;3.35;2.10;;;21.10;94.70;;;;;;5027893;28;20113;-35
2021/08/28 13:51:42;;;;;;;4.43;2.33;;;21.10;94.60;;;;;;5027816;28;20116;-40
2021/08/28 13:54:08;;;;;;;5.50;2.10;;;21.10;94.60;;;;;;5027509;28;20021;-41
2021/08/28 13:56:33;;;;;;;3.38;1.90;;;21.10;94.90;;;;;;5027739;28;20542;-38
2021/08/28 13:58:59;;;;;;;6.28;2.08;;;21.20;95.10;;;;;;5026266;28;20036;-36
2021/08/28 14:01:27;;;;;;;5.93;2.33;;;21.20;95.00;;;;;;5027707;28;20045;-38
2021/08/28 14:03:56;;;;;;;4.93;2.08;;;21.30;95.10;;;;;;5026851;28;20080;-38
2021/08/28 14:06:22;;;;;;;2.78;1.98;;;21.50;95.10;;;;;;5026100;28;20044;-39
2021/08/28 14:08:50;;;;;;;3.03;2.28;;;21.60;94.70;;;;;;5026519;28;20033;-41
2021/08/28 14:11:16;;;;;;;3.28;1.95;;;21.70;94.50;;;;;;5026621;28;20017;-37
2021/08/28 14:13:41;;;;;;;3.58;2.03;;;21.70;93.70;;;;;;5034586;28;20484;-37